createdAt,value
2023-03-10T05:48:50.238Z,6.40
2023-03-10T05:51:53.944Z,5.97
2023-03-10T05:54:57.170Z,6.90
2023-03-10T05:58:00.251Z,6.13
2023-03-10T06:01:03.563Z,6.55
2023-03-10T06:04:08.951Z,5.60
2023-03-10T06:07:12.309Z,5.87
2023-03-10T06:10:15.745Z,5.75
2023-03-10T06:13:20.198Z,5.95
2023-03-10T06:16:23.412Z,5.30
2023-03-10T06:19:28.030Z,5.65
2023-03-10T06:22:31.492Z,6.87
2023-03-10T06:25:34.645Z,6.30
2023-03-10T06:28:40.607Z,6.30
2023-03-10T06:31:44.597Z,7.50
2023-03-10T06:34:49.540Z,6.75
2023-03-10T06:37:55.809Z,5.80
2023-03-10T06:40:59.676Z,5.95
2023-03-10T06:44:03.558Z,7.05
2023-03-10T06:47:07.671Z,6.38
2023-03-10T06:50:18.690Z,6.25
2023-03-10T06:53:27.083Z,6.20
2023-03-10T06:56:31.090Z,6.68
2023-03-10T06:59:34.952Z,6.40
2023-03-10T07:02:38.779Z,6.07
2023-03-10T07:05:43.295Z,5.97
2023-03-10T07:08:57.772Z,6.90
2023-03-10T07:12:13.141Z,7.30
2023-03-10T07:15:16.382Z,7.18
2023-03-10T07:18:19.940Z,6.70
2023-03-10T07:21:24.485Z,8.18
2023-03-10T07:24:27.649Z,6.87
2023-03-10T07:27:31.193Z,6.05
2023-03-10T07:30:40.011Z,6.05
2023-03-10T07:33:43.519Z,6.90
2023-03-10T07:36:47.983Z,6.50
2023-03-10T07:39:52.051Z,6.40
2023-03-10T07:42:59.240Z,6.13
2023-03-10T07:46:06.642Z,6.13
2023-03-10T07:49:10.288Z,6.13
2023-03-10T07:52:15.428Z,6.85
2023-03-10T07:55:19.258Z,5.63
2023-03-10T07:58:25.116Z,7.40
2023-03-10T08:01:28.193Z,7.13
2023-03-10T08:04:32.021Z,6.32
2023-03-10T08:07:36.686Z,6.38
2023-03-10T08:10:40.262Z,7.77
2023-03-10T08:13:45.790Z,6.03
2023-03-10T08:16:48.969Z,6.60
2023-03-10T08:19:53.721Z,6.05
2023-03-10T08:22:58.196Z,6.30
2023-03-10T08:26:02.812Z,5.77
2023-03-10T08:29:07.035Z,5.95
2023-03-10T08:32:10.651Z,5.88
2023-03-10T08:35:13.987Z,6.25
2023-03-10T08:38:18.745Z,6.63
2023-03-10T08:41:24.591Z,6.43
2023-03-10T08:44:27.974Z,6.57
2023-03-10T08:47:32.461Z,6.00
2023-03-10T08:50:35.749Z,6.18
2023-03-10T08:53:41.691Z,6.25
2023-03-10T08:56:45.433Z,6.33
2023-03-10T08:59:49.099Z,6.30
2023-03-10T09:02:52.298Z,5.80
2023-03-10T09:05:56.124Z,5.93
2023-03-10T09:09:00.715Z,5.75
2023-03-10T09:12:04.667Z,6.10
2023-03-10T09:15:09.908Z,5.80
2023-03-10T09:18:15.389Z,6.25
2023-03-10T09:21:20.261Z,5.70
2023-03-10T09:24:25.522Z,6.30
2023-03-10T09:27:28.662Z,6.17
2023-03-10T09:30:31.950Z,6.15
2023-03-10T09:33:35.260Z,7.20
2023-03-10T09:36:39.661Z,6.60
2023-03-10T09:39:44.112Z,6.20
2023-03-10T09:42:49.324Z,6.57
2023-03-10T09:45:58.680Z,6.30
2023-03-10T09:49:10.797Z,5.90
2023-03-10T09:52:26.861Z,5.32
2023-03-10T09:55:38.280Z,5.70
2023-03-10T09:58:48.728Z,6.50
2023-03-10T10:02:02.538Z,5.85
2023-03-10T10:05:17.315Z,6.57
2023-03-10T10:08:28.106Z,6.57
2023-03-10T10:11:38.097Z,6.65
2023-03-10T10:14:55.031Z,6.30
2023-03-10T10:18:19.666Z,6.32
2023-03-10T10:21:41.700Z,7.13
2023-03-10T10:25:05.838Z,6.45
2023-03-10T10:28:21.097Z,6.15
2023-03-10T10:31:28.333Z,6.00
2023-03-10T10:34:32.153Z,5.97
2023-03-10T10:37:42.870Z,6.25
2023-03-10T10:40:52.505Z,5.88
2023-03-10T10:44:01.038Z,5.80
2023-03-10T10:47:04.787Z,6.20
2023-03-10T10:50:19.291Z,6.40
2023-03-10T10:53:40.306Z,5.13
2023-03-10T10:56:56.127Z,5.20
2023-03-10T11:00:18.631Z,5.32
2023-03-10T11:03:27.553Z,5.10
2023-03-10T11:06:34.417Z,5.50
2023-03-10T11:09:38.660Z,4.95
2023-03-10T11:12:55.851Z,6.85
2023-03-10T11:16:07.008Z,4.90
2023-03-10T11:19:19.444Z,5.13
2023-03-10T11:22:34.558Z,4.57
2023-03-10T11:25:41.994Z,4.15
2023-03-10T11:28:53.673Z,4.35
2023-03-10T11:32:05.901Z,4.53
2023-03-10T11:35:20.496Z,4.30
2023-03-10T11:38:35.682Z,4.80
2023-03-10T11:41:45.120Z,3.95
2023-03-10T11:44:58.518Z,4.20
2023-03-10T11:48:18.843Z,3.92
2023-03-10T11:51:30.914Z,3.97
2023-03-10T11:54:36.237Z,3.90
2023-03-10T11:57:45.905Z,4.22
2023-03-10T12:00:52.713Z,3.80
2023-03-10T12:04:03.783Z,5.70
2023-03-10T12:07:13.364Z,3.50
2023-03-10T12:10:18.817Z,3.90
2023-03-10T12:13:29.358Z,3.70
2023-03-10T12:16:39.504Z,2.65
2023-03-10T12:20:24.044Z,3.55
2023-03-10T12:23:53.843Z,4.23
2023-03-10T12:27:06.725Z,4.30
2023-03-10T12:30:46.031Z,4.78
2023-03-10T12:34:07.920Z,4.15
2023-03-10T12:37:23.388Z,4.30
2023-03-10T12:40:50.961Z,4.07
2023-03-10T12:43:57.270Z,3.65
2023-03-10T12:47:14.056Z,3.03
2023-03-10T12:50:27.286Z,2.65
2023-03-10T12:53:34.169Z,2.42
2023-03-10T12:56:43.244Z,2.77
2023-03-10T12:59:53.955Z,1.77
2023-03-10T13:03:02.955Z,2.38
2023-03-10T13:06:11.096Z,2.25
2023-03-10T13:09:27.293Z,2.38
2023-03-10T13:12:33.786Z,1.60
2023-03-10T13:15:39.364Z,1.67
2023-03-10T13:18:48.886Z,1.75
2023-03-10T13:21:53.312Z,1.75
2023-03-10T13:25:04.297Z,2.00
2023-03-10T13:28:12.128Z,1.60
2023-03-10T13:31:20.460Z,2.00
2023-03-10T13:34:27.659Z,1.70
2023-03-10T13:37:30.811Z,1.75
2023-03-10T13:40:38.539Z,1.67
2023-03-10T13:43:44.175Z,1.70
2023-03-10T13:46:50.848Z,1.67
2023-03-10T13:49:56.394Z,1.77
2023-03-10T13:53:00.609Z,1.73
2023-03-10T13:56:18.390Z,1.80
2023-03-10T13:59:24.867Z,1.50
2023-03-10T14:02:37.694Z,1.70
2023-03-10T14:05:45.714Z,1.10
2023-03-10T14:08:48.865Z,1.33
2023-03-10T14:11:53.618Z,1.30
2023-03-10T14:15:10.559Z,1.50
2023-03-10T14:18:20.647Z,1.55
2023-03-10T14:21:26.788Z,1.80
2023-03-10T14:24:29.984Z,1.85
